Time;durP1;ratioP1;P1;durP2;ratioP2;P2;SDS_P1;SDS_P2;PMS_P1;PMS_P2;Temp;Humidity;BMP_temperature;BMP_pressure;BME280_temperature;BME280_humidity;BME280_pressure;Samples;Min_cycle;Max_cycle;Signal;HPM_P1;HPM_P2
2021/05/18 00:00:46;;;;;;;1.10;1.00;;;11.80;96.10;;;;;;6299515;28;20798;-60
2021/05/18 00:03:49;;;;;;;1.40;1.30;;;11.90;96.40;;;;;;6298727;28;20571;-58
2021/05/18 00:06:53;;;;;;;1.53;1.13;;;11.80;96.70;;;;;;6296975;28;20469;-58
2021/05/18 00:13:17;;;;;;;1.40;1.00;;;11.80;97.50;;;;;;6296944;28;20441;-58
2021/05/18 00:16:20;;;;;;;1.43;1.00;;;11.80;97.40;;;;;;6296229;28;20477;-59
2021/05/18 00:19:25;;;;;;;1.70;1.10;;;11.70;97.10;;;;;;6296895;28;20461;-58
2021/05/18 00:22:27;;;;;;;2.03;1.20;;;11.70;97.30;;;;;;6294445;28;20944;-59
2021/05/18 00:25:30;;;;;;;2.77;1.63;;;11.70;97.50;;;;;;6298839;28;20814;-58
2021/05/18 00:28:33;;;;;;;1.50;1.13;;;11.80;97.50;;;;;;6299739;28;20456;-58
2021/05/18 00:31:36;;;;;;;2.20;1.80;;;11.70;97.40;;;;;;6299754;28;20476;-59
2021/05/18 00:34:40;;;;;;;1.30;0.80;;;11.80;97.20;;;;;;6299229;28;20465;-58
2021/05/18 00:37:43;;;;;;;1.80;0.80;;;11.80;97.20;;;;;;6299787;28;20460;-59
2021/05/18 00:40:46;;;;;;;1.07;0.90;;;11.90;97.20;;;;;;6299463;28;20469;-59
2021/05/18 00:43:49;;;;;;;1.27;0.80;;;11.80;97.00;;;;;;6299738;28;20480;-58
2021/05/18 00:46:52;;;;;;;2.73;1.17;;;11.90;97.20;;;;;;6299389;28;20799;-59
2021/05/18 00:49:56;;;;;;;1.20;0.90;;;11.80;96.80;;;;;;6299349;28;20810;-58
2021/05/18 00:52:59;;;;;;;1.80;1.10;;;11.90;96.80;;;;;;6299306;28;20487;-58
2021/05/18 00:56:04;;;;;;;3.17;1.20;;;11.80;96.50;;;;;;6299136;28;20575;-58
2021/05/18 00:59:07;;;;;;;1.63;0.73;;;11.70;96.40;;;;;;6299589;28;20483;-58
2021/05/18 01:02:10;;;;;;;4.77;1.73;;;11.60;96.50;;;;;;6298987;28;20465;-62
2021/05/18 01:05:18;;;;;;;4.20;2.10;;;11.50;96.80;;;;;;6299307;28;20469;-58
2021/05/18 01:08:21;;;;;;;2.70;1.73;;;11.30;97.40;;;;;;6299100;28;20973;-58
2021/05/18 01:11:25;;;;;;;3.20;1.87;;;11.30;97.30;;;;;;6299231;28;20956;-58
2021/05/18 01:14:28;;;;;;;1.70;1.30;;;11.40;97.30;;;;;;6298710;28;20477;-58
2021/05/18 01:17:31;;;;;;;1.53;1.00;;;11.30;97.20;;;;;;6299301;28;20464;-59
2021/05/18 01:20:38;;;;;;;1.13;0.97;;;11.30;97.30;;;;;;6298641;28;20473;-59
2021/05/18 01:23:41;;;;;;;1.17;0.67;;;11.20;97.20;;;;;;6298661;28;20575;-59
2021/05/18 01:26:46;;;;;;;1.23;1.13;;;11.10;97.30;;;;;;6294087;28;20499;-59
2021/05/18 01:29:49;;;;;;;1.60;1.20;;;10.80;97.80;;;;;;6302780;28;20852;-59
2021/05/18 01:32:52;;;;;;;2.60;1.33;;;10.70;98.00;;;;;;6303824;28;20479;-59
2021/05/18 01:35:59;;;;;;;1.20;1.10;;;10.60;98.50;;;;;;6303833;28;20790;-59
2021/05/18 01:39:11;;;;;;;3.23;1.70;;;10.60;98.50;;;;;;6303487;28;20473;-59
2021/05/18 01:45:35;;;;;;;1.13;1.00;;;10.70;98.80;;;;;;6303389;28;20477;-60
2021/05/18 01:48:37;;;;;;;1.43;1.17;;;10.70;98.60;;;;;;6303777;28;20481;-59
2021/05/18 01:51:43;;;;;;;0.80;0.80;;;10.70;98.70;;;;;;6303008;28;20487;-59
2021/05/18 01:54:46;;;;;;;1.50;1.40;;;10.70;98.70;;;;;;6303113;28;21000;-60
2021/05/18 01:57:49;;;;;;;1.40;1.30;;;10.80;98.80;;;;;;6302824;28;20994;-59
2021/05/18 02:00:52;;;;;;;1.37;1.27;;;10.80;98.60;;;;;;6302979;28;20488;-59
2021/05/18 02:03:54;;;;;;;1.23;1.13;;;10.80;98.50;;;;;;6303084;28;20473;-59
2021/05/18 02:06:59;;;;;;;1.73;1.37;;;10.70;98.80;;;;;;6302717;28;20473;-60
2021/05/18 02:10:05;;;;;;;1.37;1.27;;;10.80;98.80;;;;;;6302881;28;20484;-59
2021/05/18 02:13:08;;;;;;;9.87;1.30;;;10.80;98.90;;;;;;6302460;28;20487;-60
2021/05/18 02:16:16;;;;;;;0.87;0.80;;;10.80;98.60;;;;;;6302458;28;20488;-59
2021/05/18 02:19:28;;;;;;;0.90;0.70;;;10.80;98.60;;;;;;6302145;28;20464;-59
2021/05/18 02:25:53;;;;;;;1.40;0.77;;;10.70;98.70;;;;;;6302522;28;20796;-61
2021/05/18 02:28:56;;;;;;;0.77;0.70;;;10.70;98.60;;;;;;6302793;28;20469;-61
2021/05/18 02:31:58;;;;;;;0.67;0.67;;;10.70;98.80;;;;;;6302239;28;20472;-61
2021/05/18 02:35:02;;;;;;;0.70;0.60;;;10.70;98.60;;;;;;6302873;28;20473;-59
2021/05/18 02:38:06;;;;;;;2.20;0.80;;;10.70;98.80;;;;;;6302441;28;20469;-59
2021/05/18 02:41:08;;;;;;;1.83;0.80;;;10.70;99.00;;;;;;6302079;28;20473;-59
2021/05/18 02:44:15;;;;;;;1.07;0.97;;;10.70;98.90;;;;;;6301899;28;20488;-60
2021/05/18 02:50:39;;;;;;;0.70;0.70;;;10.70;98.70;;;;;;6301791;28;20820;-60
2021/05/18 02:53:43;;;;;;;1.20;1.10;;;10.60;98.60;;;;;;6302262;28;20469;-60
2021/05/18 02:56:48;;;;;;;0.97;0.90;;;10.60;98.70;;;;;;6301539;28;20466;-60
2021/05/18 02:59:51;;;;;;;0.90;0.80;;;10.50;98.90;;;;;;6301886;28;20469;-61
2021/05/18 03:02:54;;;;;;;0.93;0.87;;;10.60;99.00;;;;;;6301696;28;20464;-59
2021/05/18 03:05:56;;;;;;;1.20;0.63;;;10.40;98.80;;;;;;6301992;28;20488;-61
2021/05/18 03:09:00;;;;;;;0.73;0.73;;;10.40;99.00;;;;;;6301592;28;20465;-61
2021/05/18 03:12:03;;;;;;;1.90;0.90;;;10.30;99.20;;;;;;6301415;28;20473;-61
2021/05/18 03:15:07;;;;;;;1.00;0.90;;;10.20;99.80;;;;;;6301057;28;20484;-59
2021/05/18 03:18:11;;;;;;;3.10;0.83;;;10.20;99.70;;;;;;6301347;28;20988;-59
2021/05/18 03:21:13;;;;;;;1.00;0.80;;;10.10;99.80;;;;;;6301353;28;20611;-59
2021/05/18 03:24:17;;;;;;;1.00;0.90;;;9.90;99.90;;;;;;6301288;28;20476;-60
2021/05/18 03:27:20;;;;;;;1.57;1.03;;;9.90;99.90;;;;;;6301157;28;20480;-60
2021/05/18 03:30:36;;;;;;;1.00;0.90;;;10.00;99.90;;;;;;6300902;28;20476;-61
2021/05/18 03:37:02;;;;;;;2.07;1.07;;;10.10;99.90;;;;;;6300798;28;20812;-61
2021/05/18 03:40:10;;;;;;;1.57;1.47;;;10.20;99.90;;;;;;6300860;28;20484;-59
2021/05/18 03:43:24;;;;;;;3.17;1.57;;;10.10;99.90;;;;;;6300769;28;20960;-59
2021/05/18 03:53:22;;;;;;;1.10;1.00;;;10.00;99.90;;;;;;6300359;28;20480;-59
2021/05/18 04:03:15;;;;;;;1.20;1.10;;;10.00;99.90;;;;;;6300220;28;20469;-59
2021/05/18 04:13:16;;;;;;;1.40;1.30;;;10.30;99.90;;;;;;6300399;28;20485;-59
2021/05/18 04:19:42;;;;;;;2.13;1.27;;;10.60;99.90;;;;;;6300384;28;20473;-60
2021/05/18 04:23:05;;;;;;;2.73;1.30;;;10.70;99.70;;;;;;6299661;28;20802;-60
2021/05/18 04:26:25;;;;;;;1.60;1.33;;;10.90;99.70;;;;;;6300111;28;20477;-60
2021/05/18 04:39:58;;;;;;;2.17;1.73;;;10.60;99.30;;;;;;6295038;28;20814;-61
2021/05/18 04:49:57;;;;;;;5.70;2.17;;;11.10;99.60;;;;;;6299007;28;20477;-60
2021/05/18 04:53:10;;;;;;;2.43;1.20;;;11.30;99.30;;;;;;6299524;28;20937;-60
2021/05/18 04:59:41;;;;;;;1.40;1.30;;;11.50;98.70;;;;;;6299495;28;20488;-61
2021/05/18 05:02:57;;;;;;;1.30;1.20;;;11.70;98.20;;;;;;6298222;28;20781;-60
2021/05/18 05:09:27;;;;;;;2.83;1.30;;;12.00;98.00;;;;;;6299193;28;20470;-59
2021/05/18 05:15:47;;;;;;;1.53;1.40;;;12.20;97.00;;;;;;6297295;28;20803;-58
2021/05/18 05:18:50;;;;;;;1.90;1.17;;;12.40;97.20;;;;;;6298595;28;20695;-58
2021/05/18 05:21:53;;;;;;;2.60;1.10;;;12.50;96.80;;;;;;6298880;28;20488;-59
2021/05/18 05:24:56;;;;;;;6.30;1.50;;;12.60;96.90;;;;;;6298648;28;20489;-58
2021/05/18 05:27:59;;;;;;;2.23;1.57;;;12.80;96.60;;;;;;6299150;28;20476;-60
2021/05/18 05:31:02;;;;;;;5.13;1.50;;;13.00;96.10;;;;;;6298651;28;20469;-60
2021/05/18 05:34:06;;;;;;;2.60;1.10;;;13.30;95.90;;;;;;6297009;28;20473;-60
2021/05/18 05:37:09;;;;;;;2.40;0.93;;;13.40;95.50;;;;;;6296377;28;21027;-60
2021/05/18 05:40:13;;;;;;;2.60;1.53;;;13.50;94.90;;;;;;6296105;28;20476;-60
2021/05/18 05:43:16;;;;;;;3.07;1.50;;;13.60;94.70;;;;;;6296556;28;20452;-60
2021/05/18 05:46:19;;;;;;;2.40;1.70;;;13.80;94.70;;;;;;6296343;28;20472;-60
2021/05/18 05:49:23;;;;;;;5.03;1.80;;;14.00;94.20;;;;;;6297598;28;20442;-59
2021/05/18 05:52:25;;;;;;;3.90;1.97;;;14.40;94.20;;;;;;6298418;28;20437;-61
2021/05/18 05:55:31;;;;;;;2.87;1.90;;;15.10;93.50;;;;;;6298428;28;20417;-61
2021/05/18 05:58:34;;;;;;;3.33;1.63;;;15.70;92.10;;;;;;6297015;28;20532;-60
2021/05/18 06:01:37;;;;;;;2.80;1.80;;;15.80;90.90;;;;;;6296213;28;20473;-59
2021/05/18 06:04:41;;;;;;;4.80;2.60;;;16.20;90.20;;;;;;6296267;28;20483;-59
2021/05/18 06:07:43;;;;;;;3.00;1.60;;;16.60;88.50;;;;;;6295761;28;20476;-60
2021/05/18 06:10:49;;;;;;;2.53;1.60;;;17.10;86.20;;;;;;6294845;28;20469;-60
2021/05/18 06:14:02;;;;;;;1.40;1.20;;;17.70;83.20;;;;;;6297302;28;20469;-60
2021/05/18 06:34:15;;;;;;;2.27;1.30;;;21.80;65.30;;;;;;6301195;28;20248;-60
2021/05/18 06:37:40;;;;;;;2.80;1.70;;;22.60;61.90;;;;;;6301758;28;20227;-59
2021/05/18 06:47:31;;;;;;;4.37;1.67;;;24.80;53.20;;;;;;6290744;28;20246;-60
2021/05/18 06:50:35;;;;;;;4.37;1.97;;;25.80;49.70;;;;;;6301468;28;20233;-60
2021/05/18 06:53:38;;;;;;;4.93;2.10;;;26.10;47.50;;;;;;6301788;28;20577;-60
2021/05/18 06:56:43;;;;;;;3.50;1.70;;;26.70;46.80;;;;;;6301929;28;20226;-60
2021/05/18 07:03:11;;;;;;;6.43;1.73;;;27.70;43.70;;;;;;6301703;28;20662;-62
2021/05/18 07:06:28;;;;;;;3.73;1.20;;;28.20;41.70;;;;;;6301779;28;20234;-60
2021/05/18 07:09:31;;;;;;;3.13;1.17;;;29.00;40.80;;;;;;6301246;28;20234;-59
2021/05/18 07:12:36;;;;;;;3.10;1.60;;;29.50;39.10;;;;;;6301756;28;20230;-59
2021/05/18 07:15:39;;;;;;;1.33;0.70;;;30.50;37.50;;;;;;6300815;28;20242;-61
2021/05/18 07:18:42;;;;;;;1.93;0.87;;;31.20;33.60;;;;;;6301368;28;20222;-60
2021/05/18 07:21:44;;;;;;;4.20;0.77;;;31.50;32.90;;;;;;6301207;28;20230;-60
2021/05/18 07:24:48;;;;;;;1.57;0.50;;;32.00;31.10;;;;;;6300709;28;20230;-61
2021/05/18 07:27:51;;;;;;;1.35;0.45;;;32.80;30.00;;;;;;6300544;28;20249;-60
2021/05/18 07:30:53;;;;;;;2.50;0.57;;;33.80;29.20;;;;;;6300979;28;20238;-60
2021/05/18 07:33:56;;;;;;;0.82;0.40;;;34.10;27.60;;;;;;6301012;28;20226;-60
2021/05/18 07:36:59;;;;;;;0.77;0.35;;;34.40;26.20;;;;;;6300849;28;20263;-61
2021/05/18 07:40:04;;;;;;;1.35;0.50;;;34.90;26.70;;;;;;6301225;28;20238;-61
2021/05/18 07:43:07;;;;;;;0.93;0.40;;;35.40;26.20;;;;;;6300594;28;20725;-61
2021/05/18 07:46:15;;;;;;;0.85;0.30;;;36.50;25.40;;;;;;6301309;28;20238;-60
2021/05/18 07:49:26;;;;;;;1.15;0.70;;;36.90;24.70;;;;;;6291078;28;20753;-59
2021/05/18 07:59:26;;;;;;;2.78;0.50;;;34.50;24.30;;;;;;6298982;28;20670;-59
2021/05/18 08:05:17;;;;;;;1.50;0.30;;;33.80;25.40;;;;;;6300496;28;20233;-61
2021/05/18 08:05:55;;;;;;;0.82;0.47;;;33.00;25.30;;;;;;6290350;28;20834;-62
2021/05/18 08:08:58;;;;;;;1.67;0.80;;;31.30;26.10;;;;;;6295097;28;20237;-63
2021/05/18 08:12:02;;;;;;;0.80;0.30;;;29.80;28.00;;;;;;6299477;28;20241;-61
2021/05/18 08:15:28;;;;;;;1.33;0.60;;;28.80;29.30;;;;;;6299562;28;20227;-62
2021/05/18 08:18:48;;;;;;;1.60;0.30;;;29.10;29.80;;;;;;6298367;28;20580;-64
2021/05/18 08:22:16;;;;;;;0.60;0.30;;;29.40;28.90;;;;;;6299446;28;20238;-64
2021/05/18 10:15:08;;;;;;;2.00;0.60;;;20.50;49.70;;;;;;6286973;28;20227;-61
2021/05/18 10:35:03;;;;;;;0.57;0.23;;;22.10;43.40;;;;;;6302579;28;20333;-64
2021/05/18 10:38:08;;;;;;;1.10;0.40;;;22.10;42.20;;;;;;6302217;28;20697;-63
2021/05/18 10:41:13;;;;;;;0.50;0.20;;;22.20;43.10;;;;;;6301974;28;20801;-64
2021/05/18 10:44:17;;;;;;;0.63;0.30;;;22.30;40.00;;;;;;6302574;28;20659;-63
2021/05/18 10:47:36;;;;;;;0.67;0.30;;;22.20;40.40;;;;;;6301780;28;20237;-64
2021/05/18 10:50:41;;;;;;;0.70;0.30;;;22.20;39.70;;;;;;6301856;28;20235;-64
2021/05/18 10:54:17;;;;;;;1.57;0.30;;;22.30;41.50;;;;;;6301552;28;20308;-60
2021/05/18 10:57:28;;;;;;;0.47;0.23;;;22.30;39.20;;;;;;6301824;28;20310;-64
2021/05/18 11:00:31;;;;;;;0.93;0.33;;;22.00;37.40;;;;;;6296760;28;20689;-63
2021/05/18 11:03:35;;;;;;;0.80;0.30;;;22.10;39.20;;;;;;6300908;28;20227;-65
2021/05/18 11:06:50;;;;;;;0.80;0.50;;;22.20;40.60;;;;;;6301432;28;20227;-63
2021/05/18 11:09:54;;;;;;;0.50;0.20;;;22.30;40.00;;;;;;6295648;28;20756;-60
2021/05/18 11:12:57;;;;;;;0.50;0.20;;;22.40;38.30;;;;;;6301225;28;20227;-62
2021/05/18 11:16:00;;;;;;;2.43;0.63;;;22.40;38.90;;;;;;6300476;28;20241;-63
2021/05/18 11:19:10;;;;;;;0.90;0.60;;;22.50;37.80;;;;;;6300961;28;20312;-62
2021/05/18 11:22:14;;;;;;;0.63;0.20;;;22.50;38.30;;;;;;6301225;28;20235;-62
2021/05/18 11:25:25;;;;;;;0.60;0.40;;;22.50;37.20;;;;;;6300797;28;20606;-63
2021/05/18 11:28:29;;;;;;;0.70;0.40;;;22.60;36.90;;;;;;6301395;28;20218;-62
2021/05/18 11:31:33;;;;;;;0.80;0.30;;;22.80;37.50;;;;;;6301010;28;20231;-60
2021/05/18 11:34:51;;;;;;;4.23;0.40;;;23.00;36.00;;;;;;6300778;28;20199;-61
2021/05/18 11:38:00;;;;;;;0.60;0.30;;;23.30;35.90;;;;;;6300133;28;20218;-60
2021/05/18 11:41:04;;;;;;;0.93;0.37;;;23.50;36.50;;;;;;6299260;28;20777;-60
2021/05/18 11:44:10;;;;;;;0.83;0.33;;;23.70;37.50;;;;;;6299534;28;20356;-60
2021/05/18 11:47:14;;;;;;;1.20;0.50;;;23.90;36.30;;;;;;6297704;28;20227;-59
2021/05/18 11:50:23;;;;;;;1.47;0.40;;;24.00;35.50;;;;;;6299729;28;20227;-61
2021/05/18 11:53:33;;;;;;;0.50;0.20;;;24.20;35.70;;;;;;6293786;28;20219;-64
2021/05/18 11:56:57;;;;;;;0.80;0.30;;;24.30;34.80;;;;;;6291452;28;20223;-64
2021/05/18 12:00:01;;;;;;;0.73;0.20;;;24.30;34.60;;;;;;6274490;28;20343;-62
2021/05/18 12:03:14;;;;;;;0.53;0.30;;;24.40;34.70;;;;;;6286065;28;20235;-65
2021/05/18 12:06:17;;;;;;;0.60;0.30;;;24.40;34.40;;;;;;6297409;28;20569;-63
2021/05/18 12:09:20;;;;;;;0.70;0.30;;;24.30;33.80;;;;;;6287518;28;20235;-60
2021/05/18 12:12:23;;;;;;;1.00;0.20;;;23.90;32.70;;;;;;6275927;28;20673;-62
2021/05/18 12:15:27;;;;;;;6.23;0.80;;;23.60;33.60;;;;;;6291443;28;20384;-63
2021/05/18 12:18:36;;;;;;;1.50;0.40;;;23.40;33.90;;;;;;6273836;28;20368;-62
2021/05/18 12:21:40;;;;;;;0.60;0.20;;;23.40;34.70;;;;;;6273766;28;20587;-64
2021/05/18 12:24:43;;;;;;;0.90;0.33;;;23.50;35.70;;;;;;6273179;28;20239;-60
2021/05/18 12:27:47;;;;;;;0.73;0.30;;;23.50;34.70;;;;;;6273983;28;20249;-62
2021/05/18 12:30:49;;;;;;;0.60;0.40;;;23.60;35.60;;;;;;6296530;28;20883;-62
2021/05/18 12:33:53;;;;;;;0.77;0.30;;;23.80;34.80;;;;;;6296168;28;20303;-61
2021/05/18 12:36:57;;;;;;;2.70;0.40;;;24.00;34.50;;;;;;6297460;28;20234;-64
2021/05/18 12:40:02;;;;;;;0.50;0.20;;;23.90;33.80;;;;;;6297180;28;20685;-61
2021/05/18 12:43:09;;;;;;;0.60;0.30;;;24.10;34.80;;;;;;6299137;28;20597;-65
2021/05/18 12:46:14;;;;;;;0.60;0.40;;;24.20;33.20;;;;;;6299060;28;20318;-65
2021/05/18 12:49:24;;;;;;;0.90;0.33;;;24.30;33.70;;;;;;6299166;28;20236;-62
2021/05/18 12:52:39;;;;;;;0.50;0.20;;;24.30;34.00;;;;;;6299587;28;20211;-63
2021/05/18 12:55:43;;;;;;;0.93;0.30;;;24.20;33.50;;;;;;6299327;28;20654;-62
2021/05/18 12:58:46;;;;;;;0.50;0.30;;;24.00;34.10;;;;;;6299380;28;20288;-62
2021/05/18 13:01:49;;;;;;;1.53;0.27;;;23.90;33.80;;;;;;6298641;28;20245;-62
2021/05/18 13:05:10;;;;;;;3.20;0.70;;;23.70;33.80;;;;;;6299345;28;20308;-60
2021/05/18 13:08:15;;;;;;;4.63;0.80;;;23.50;34.40;;;;;;6282012;28;20240;-59
2021/05/18 13:12:11;;;;;;;0.70;0.30;;;23.30;34.90;;;;;;6274012;28;20236;-60
2021/05/18 13:14:57;;;;;;;0.70;0.30;;;22.90;34.40;;;;;;6280648;28;20543;-64
2021/05/18 13:18:01;;;;;;;1.17;0.63;;;22.60;34.30;;;;;;6298776;28;20231;-60
2021/05/18 13:21:22;;;;;;;0.80;0.23;;;22.40;35.30;;;;;;6298878;28;20229;-59
2021/05/18 13:26:25;;;;;;;0.90;0.60;;;22.10;35.10;;;;;;6300817;28;20277;-61
2021/05/18 13:27:57;;;;;;;1.43;0.40;;;21.90;36.30;;;;;;6294382;28;20238;-60
2021/05/18 13:31:00;;;;;;;0.70;0.57;;;21.40;38.80;;;;;;6284158;28;20233;-61
2021/05/18 13:34:04;;;;;;;7.53;0.87;;;21.00;42.10;;;;;;6302464;28;20576;-61
2021/05/18 13:37:19;;;;;;;3.13;0.60;;;20.00;45.00;;;;;;6282623;28;20230;-62
2021/05/18 13:40:39;;;;;;;0.53;0.20;;;19.10;49.20;;;;;;6277918;28;20281;-64
2021/05/18 13:43:42;;;;;;;2.03;0.80;;;18.60;48.20;;;;;;6279397;28;20234;-60
2021/05/18 13:46:47;;;;;;;0.60;0.57;;;18.80;47.50;;;;;;6302821;28;20333;-59
2021/05/18 13:49:50;;;;;;;1.17;0.40;;;19.10;48.20;;;;;;6303323;28;20231;-60
2021/05/18 13:52:59;;;;;;;0.50;0.30;;;19.30;48.10;;;;;;6300572;28;20689;-61
2021/05/18 13:56:02;;;;;;;0.70;0.30;;;19.60;48.10;;;;;;6299460;28;20227;-61
2021/05/18 13:59:05;;;;;;;0.90;0.20;;;19.70;45.20;;;;;;6301440;28;20238;-61
2021/05/18 14:02:08;;;;;;;1.53;0.20;;;19.90;43.90;;;;;;6302787;28;20318;-61
2021/05/18 14:05:13;;;;;;;1.80;0.30;;;20.10;45.60;;;;;;6302466;28;20232;-61
2021/05/18 14:08:25;;;;;;;0.60;0.27;;;20.30;45.20;;;;;;6299731;28;20238;-60
2021/05/18 14:11:27;;;;;;;0.57;0.30;;;20.30;45.00;;;;;;6292927;28;20239;-60
2021/05/18 14:14:30;;;;;;;0.50;0.23;;;20.40;44.80;;;;;;6302125;28;20223;-62
2021/05/18 14:17:33;;;;;;;0.60;0.30;;;20.50;44.50;;;;;;6302389;28;20227;-60
2021/05/18 14:20:35;;;;;;;0.83;0.27;;;20.40;44.30;;;;;;6302486;28;20238;-61
2021/05/18 14:23:43;;;;;;;0.60;0.33;;;20.40;45.30;;;;;;6301977;28;20701;-62
2021/05/18 14:26:46;;;;;;;0.50;0.20;;;20.40;43.50;;;;;;6302514;28;20239;-62
2021/05/18 14:29:49;;;;;;;1.90;0.50;;;20.40;43.30;;;;;;6301923;28;20237;-62
2021/05/18 14:32:53;;;;;;;0.93;0.37;;;20.40;43.40;;;;;;6302172;28;20309;-60
2021/05/18 14:35:57;;;;;;;2.40;0.30;;;20.50;42.70;;;;;;6288392;28;20227;-60
2021/05/18 14:39:05;;;;;;;1.87;0.60;;;20.40;41.90;;;;;;6301321;28;20371;-64
2021/05/18 14:45:32;;;;;;;0.50;0.20;;;20.60;44.20;;;;;;6301871;28;20234;-60
2021/05/18 14:55:19;;;;;;;0.47;0.23;;;20.90;41.20;;;;;;6301518;28;20231;-60
2021/05/18 14:58:22;;;;;;;0.87;0.63;;;20.90;38.80;;;;;;6301303;28;20226;-62
2021/05/18 15:01:25;;;;;;;0.50;0.30;;;21.00;39.90;;;;;;6301149;28;20560;-59
2021/05/18 15:04:28;;;;;;;1.57;0.50;;;21.00;40.70;;;;;;6301265;28;20209;-60
2021/05/18 15:07:31;;;;;;;1.37;0.20;;;21.20;40.70;;;;;;6298564;28;20234;-60
2021/05/18 15:10:35;;;;;;;0.50;0.30;;;21.40;40.00;;;;;;6274093;28;20282;-60
2021/05/18 15:13:38;;;;;;;0.93;0.30;;;21.70;39.00;;;;;;6289576;28;20198;-60
2021/05/18 15:16:41;;;;;;;0.80;0.30;;;22.00;38.40;;;;;;6302240;28;20682;-59
2021/05/18 15:19:45;;;;;;;6.93;0.73;;;22.30;37.70;;;;;;6301070;28;20241;-59
2021/05/18 15:22:48;;;;;;;0.70;0.40;;;22.40;40.50;;;;;;6301108;28;20689;-59
2021/05/18 15:25:51;;;;;;;0.70;0.50;;;22.30;42.90;;;;;;6300708;28;20235;-60
2021/05/18 15:28:54;;;;;;;0.70;0.33;;;22.30;42.90;;;;;;6301123;28;20230;-60
2021/05/18 15:31:59;;;;;;;2.83;0.40;;;22.10;42.80;;;;;;6300641;28;20238;-60
2021/05/18 15:35:02;;;;;;;0.70;0.33;;;21.70;43.70;;;;;;6295865;28;20238;-60
2021/05/18 15:38:05;;;;;;;0.90;0.40;;;21.40;43.90;;;;;;6300270;28;20551;-60
2021/05/18 15:41:09;;;;;;;0.50;0.20;;;21.20;44.20;;;;;;6294810;28;20271;-60
2021/05/18 15:44:12;;;;;;;0.77;0.30;;;21.00;44.40;;;;;;6284027;28;20687;-60
2021/05/18 15:47:15;;;;;;;1.03;0.37;;;21.00;43.10;;;;;;6295775;28;20226;-60
2021/05/18 15:50:17;;;;;;;0.93;0.40;;;20.90;43.40;;;;;;6288269;28;20698;-59
2021/05/18 15:53:21;;;;;;;0.60;0.37;;;20.80;42.60;;;;;;6275042;28;20235;-59
2021/05/18 15:56:25;;;;;;;0.60;0.20;;;20.80;43.30;;;;;;6274966;28;20603;-60
2021/05/18 15:59:28;;;;;;;0.50;0.30;;;20.80;42.70;;;;;;6290705;28;20234;-60
2021/05/18 16:02:31;;;;;;;1.17;0.50;;;20.80;42.30;;;;;;6297899;28;20733;-61
2021/05/18 16:05:34;;;;;;;0.50;0.40;;;20.70;42.90;;;;;;6297417;28;20229;-61
2021/05/18 16:11:58;;;;;;;1.00;0.40;;;20.60;43.10;;;;;;6296555;28;20233;-60
2021/05/18 16:15:01;;;;;;;1.47;0.40;;;20.70;43.80;;;;;;6308117;28;20258;-61
2021/05/18 16:18:04;;;;;;;1.10;0.30;;;20.70;45.10;;;;;;6295432;28;20325;-63
2021/05/18 16:21:07;;;;;;;1.37;0.30;;;20.70;44.40;;;;;;6286480;28;20235;-64
2021/05/18 16:24:12;;;;;;;7.83;0.40;;;20.60;44.30;;;;;;6291656;28;20242;-63
2021/05/18 16:27:16;;;;;;;0.50;0.30;;;20.50;44.60;;;;;;6282665;28;20593;-60
2021/05/18 16:30:20;;;;;;;1.47;0.30;;;20.60;44.60;;;;;;6290718;28;20258;-60
2021/05/18 16:33:22;;;;;;;0.80;0.40;;;20.60;44.80;;;;;;6286191;28;20558;-60
2021/05/18 16:36:26;;;;;;;1.73;0.40;;;20.50;45.00;;;;;;6282214;28;20230;-59
2021/05/18 16:39:29;;;;;;;1.00;0.37;;;20.50;45.40;;;;;;6285952;28;20369;-60
2021/05/18 16:42:35;;;;;;;0.63;0.40;;;20.50;45.80;;;;;;6275707;28;20222;-60
2021/05/18 16:45:38;;;;;;;0.50;0.40;;;20.40;46.60;;;;;;6285732;28;20242;-60
2021/05/18 16:48:41;;;;;;;1.80;0.40;;;20.40;47.60;;;;;;6283120;28;20648;-60
2021/05/18 16:51:44;;;;;;;1.40;0.60;;;20.30;49.50;;;;;;6288690;28;20258;-60
2021/05/18 16:54:49;;;;;;;3.27;0.90;;;20.10;52.80;;;;;;6283539;28;20231;-60
2021/05/18 16:57:53;;;;;;;4.43;0.60;;;19.70;52.60;;;;;;6289314;28;20616;-59
2021/05/18 17:00:56;;;;;;;1.27;0.60;;;18.80;55.90;;;;;;6273510;28;20694;-63
2021/05/18 17:03:59;;;;;;;1.80;0.40;;;18.30;59.00;;;;;;6273254;28;20461;-62
2021/05/18 17:07:03;;;;;;;2.20;0.70;;;18.00;59.90;;;;;;6275998;28;20476;-62
2021/05/18 17:10:07;;;;;;;0.87;0.80;;;18.00;59.50;;;;;;6287998;28;20218;-62
2021/05/18 17:13:11;;;;;;;0.60;0.50;;;18.10;61.90;;;;;;6283808;28;20473;-62
2021/05/18 17:16:14;;;;;;;3.10;1.03;;;18.10;63.10;;;;;;6285412;28;20555;-62
2021/05/18 17:19:17;;;;;;;0.90;0.63;;;18.10;63.60;;;;;;6283588;28;20465;-62
2021/05/18 17:22:20;;;;;;;1.37;0.40;;;18.10;64.70;;;;;;6290805;28;20981;-63
2021/05/18 17:25:23;;;;;;;2.23;0.60;;;18.10;66.10;;;;;;6284452;28;20556;-63
2021/05/18 17:28:27;;;;;;;1.43;0.50;;;18.20;67.30;;;;;;6286146;28;20492;-63
2021/05/18 17:31:31;;;;;;;0.50;0.40;;;18.20;66.50;;;;;;6284904;28;20565;-61
2021/05/18 17:34:37;;;;;;;1.63;0.50;;;18.20;66.00;;;;;;6289207;28;20442;-60
2021/05/18 17:37:42;;;;;;;1.80;0.60;;;18.20;67.10;;;;;;6281281;28;20932;-61
2021/05/18 17:40:45;;;;;;;1.90;0.70;;;18.30;68.70;;;;;;6288338;28;20892;-62
2021/05/18 17:43:49;;;;;;;2.10;0.40;;;18.30;68.40;;;;;;6273762;28;20469;-64
2021/05/18 17:46:52;;;;;;;0.80;0.50;;;18.30;67.90;;;;;;6289182;28;20465;-61
2021/05/18 17:49:55;;;;;;;0.67;0.67;;;18.30;67.80;;;;;;6280212;28;20868;-64
2021/05/18 17:52:57;;;;;;;2.67;0.60;;;18.20;71.10;;;;;;6281644;28;20461;-64
2021/05/18 17:56:03;;;;;;;1.03;0.73;;;18.00;71.90;;;;;;6289456;28;20474;-65
2021/05/18 17:59:07;;;;;;;2.00;0.77;;;18.00;72.30;;;;;;6284860;28;20482;-64
2021/05/18 18:02:11;;;;;;;0.90;0.63;;;18.00;73.60;;;;;;6284605;28;20487;-61
2021/05/18 18:05:13;;;;;;;0.80;0.50;;;18.00;74.40;;;;;;6288763;28;20475;-61
2021/05/18 18:08:16;;;;;;;0.60;0.40;;;17.90;74.90;;;;;;6285203;28;20481;-61
2021/05/18 18:11:19;;;;;;;0.60;0.60;;;17.80;74.20;;;;;;6275444;28;20545;-61
2021/05/18 18:14:23;;;;;;;1.00;0.53;;;17.70;73.70;;;;;;6290831;28;20457;-61
2021/05/18 18:17:26;;;;;;;0.60;0.40;;;17.60;74.00;;;;;;6286640;28;20476;-61
2021/05/18 18:20:29;;;;;;;1.60;0.90;;;17.50;74.20;;;;;;6279669;28;20484;-61
2021/05/18 18:23:33;;;;;;;1.03;0.70;;;17.30;76.10;;;;;;6287641;28;20462;-62
2021/05/18 18:26:35;;;;;;;3.47;1.20;;;17.20;77.40;;;;;;6290010;28;20511;-61
2021/05/18 18:29:39;;;;;;;1.10;0.97;;;17.20;78.90;;;;;;6288855;28;20469;-61
2021/05/18 18:32:42;;;;;;;2.40;0.80;;;17.00;79.30;;;;;;6290233;28;20477;-60
2021/05/18 18:35:45;;;;;;;3.03;0.97;;;17.00;78.70;;;;;;6286188;28;20476;-60
2021/05/18 18:38:48;;;;;;;1.00;0.60;;;16.90;79.90;;;;;;6288167;28;20469;-61
2021/05/18 18:41:51;;;;;;;1.60;0.73;;;16.80;81.70;;;;;;6291233;28;20469;-60
2021/05/18 18:44:54;;;;;;;1.20;1.10;;;16.70;82.50;;;;;;6288287;28;20477;-60
2021/05/18 18:47:57;;;;;;;1.10;0.83;;;16.60;83.10;;;;;;6290160;28;20786;-61
2021/05/18 18:51:02;;;;;;;1.27;1.03;;;16.60;84.10;;;;;;6276212;28;20491;-60
2021/05/18 18:54:05;;;;;;;3.40;1.07;;;16.60;84.00;;;;;;6276523;28;20824;-59
2021/05/18 18:57:08;;;;;;;1.80;1.17;;;16.50;84.40;;;;;;6275877;28;20973;-60
2021/05/18 19:00:15;;;;;;;2.40;1.63;;;16.40;85.10;;;;;;6276182;28;20466;-60
2021/05/18 19:03:21;;;;;;;2.83;1.00;;;16.30;86.10;;;;;;6289630;28;21030;-60
2021/05/18 19:06:30;;;;;;;1.73;0.73;;;16.30;87.30;;;;;;6287581;28;20476;-61
2021/05/18 19:09:42;;;;;;;1.20;0.80;;;16.30;88.20;;;;;;6288737;28;20532;-61
2021/05/18 19:12:46;;;;;;;0.90;0.90;;;16.30;88.80;;;;;;6287463;28;20466;-61
2021/05/18 19:15:50;;;;;;;5.03;1.10;;;16.10;89.50;;;;;;6285504;28;21007;-61
2021/05/18 19:18:53;;;;;;;1.10;1.00;;;16.10;90.20;;;;;;6288859;28;20465;-59
2021/05/18 19:21:56;;;;;;;1.97;0.83;;;16.00;91.10;;;;;;6286325;28;20929;-60
2021/05/18 19:24:59;;;;;;;1.00;0.90;;;16.00;91.50;;;;;;6286673;28;20474;-60
2021/05/18 19:28:06;;;;;;;1.87;1.00;;;16.00;92.20;;;;;;6287091;28;20469;-60
2021/05/18 19:31:11;;;;;;;0.90;0.73;;;16.00;92.60;;;;;;6284015;28;20482;-60
2021/05/18 19:34:16;;;;;;;1.50;0.93;;;16.00;92.40;;;;;;6284836;28;20677;-60
2021/05/18 19:37:27;;;;;;;2.47;1.20;;;16.10;92.30;;;;;;6287823;28;20473;-60
2021/05/18 19:43:55;;;;;;;1.63;0.97;;;16.10;92.50;;;;;;6293013;28;20480;-60
2021/05/18 19:50:21;;;;;;;2.30;1.67;;;16.20;93.00;;;;;;6286523;28;20475;-60
2021/05/18 19:53:25;;;;;;;1.10;1.00;;;16.20;92.90;;;;;;6288402;28;20469;-60
2021/05/18 19:56:34;;;;;;;10.60;1.90;;;16.20;92.90;;;;;;6285742;28;20574;-60
2021/05/18 20:19:41;;;;;;;1.37;1.03;;;16.30;93.90;;;;;;6275182;28;20474;-60
2021/05/18 20:22:45;;;;;;;1.63;1.10;;;16.30;93.90;;;;;;6285241;28;20457;-60
2021/05/18 20:25:48;;;;;;;1.63;1.00;;;16.30;93.60;;;;;;6287794;28;20503;-60
2021/05/18 20:28:51;;;;;;;1.20;1.10;;;16.30;93.60;;;;;;6285908;28;20477;-60
2021/05/18 20:31:53;;;;;;;1.53;1.27;;;16.30;93.40;;;;;;6276328;28;20810;-60
2021/05/18 20:38:48;;;;;;;1.30;1.10;;;16.30;94.00;;;;;;6285662;28;20474;-60